Time;durP1;ratioP1;P1;durP2;ratioP2;P2;SDS_P1;SDS_P2;PMS_P1;PMS_P2;Temp;Humidity;BMP_temperature;BMP_pressure;BME280_temperature;BME280_humidity;BME280_pressure;Samples;Min_cycle;Max_cycle;Signal;HPM_P1;HPM_P2
2022/04/01 00:01:53;;;;;;;;;;;;;;;;;;5090672;28;20283;-70
2022/04/01 00:04:20;;;;;;;;;;;;;;;;;;5092167;28;20663;-70
2022/04/01 00:06:47;;;;;;;;;;;;;;;;;;5091493;28;19924;-70
2022/04/01 00:09:14;;;;;;;;;;;;;;;;;;5090282;28;20314;-71
2022/04/01 00:11:41;;;;;;;;;;;;;;;;;;5091674;28;19924;-70
2022/04/01 00:14:08;;;;;;;;;;;;;;;;;;5091157;28;19924;-70
2022/04/01 00:16:35;;;;;;;;;;;;;;;;;;5091764;28;20341;-70
2022/04/01 00:19:03;;;;;;;;;;;;;;;;;;5072760;28;19931;-70
2022/04/01 00:21:29;;;;;;;;;;;;;;;;;;5092550;28;20264;-70
2022/04/01 00:23:56;;;;;;;;;;;;;;;;;;5090156;28;19932;-71
2022/04/01 00:26:23;;;;;;;;;;;;;;;;;;5092174;28;20022;-71
2022/04/01 00:28:50;;;;;;;;;;;;;;;;;;5092145;28;20022;-72
2022/04/01 00:31:18;;;;;;;;;;;;;;;;;;5090781;28;19924;-72
2022/04/01 00:33:45;;;;;;;;;;;;;;;;;;5091476;28;19940;-72
2022/04/01 00:36:12;;;;;;;;;;;;;;;;;;5092378;28;19924;-72
2022/04/01 00:38:39;;;;;;;;;;;;;;;;;;5091476;28;20367;-71
2022/04/01 00:41:06;;;;;;;;;;;;;;;;;;5089317;28;19931;-71
2022/04/01 00:43:34;;;;;;;;;;;;;;;;;;5091452;28;19931;-71
2022/04/01 00:46:01;;;;;;;;;;;;;;;;;;5090451;28;19928;-70
2022/04/01 00:48:28;;;;;;;;;;;;;;;;;;5091630;28;19931;-70
2022/04/01 00:50:55;;;;;;;;;;;;;;;;;;5089555;28;20011;-70
2022/04/01 00:53:22;;;;;;;;;;;;;;;;;;5084712;28;19924;-70
2022/04/01 00:55:49;;;;;;;;;;;;;;;;;;5090256;28;20023;-71
2022/04/01 00:58:15;;;;;;;;;;;;;;;;;;5091251;28;19930;-70
2022/04/01 01:00:42;;;;;;;;;;;;;;;;;;5089896;28;19934;-70
2022/04/01 01:03:09;;;;;;;;;;;;;;;;;;5089068;28;20383;-70
2022/04/01 01:05:36;;;;;;;;;;;;;;;;;;5091222;28;20382;-71
2022/04/01 01:08:05;;;;;;;;;;;;;;;;;;5091947;28;19931;-70
2022/04/01 01:10:32;;;;;;;;;;;;;;;;;;5090575;28;19932;-70
2022/04/01 01:12:59;;;;;;;;;;;;;;;;;;5092387;28;20007;-70
2022/04/01 01:15:26;;;;;;;;;;;;;;;;;;5090825;28;19924;-73
2022/04/01 01:17:53;;;;;;;;;;;;;;;;;;5091867;28;19981;-71
2022/04/01 01:20:20;;;;;;;;;;;;;;;;;;5090041;28;19924;-70
2022/04/01 01:22:48;;;;;;;;;;;;;;;;;;5090872;28;19970;-69
2022/04/01 01:25:15;;;;;;;;;;;;;;;;;;5090902;28;19924;-70
2022/04/01 01:27:42;;;;;;;;;;;;;;;;;;5091503;28;20014;-69
2022/04/01 01:30:09;;;;;;;;;;;;;;;;;;5090071;28;19924;-69
2022/04/01 01:32:36;;;;;;;;;;;;;;;;;;5090181;28;19930;-69
2022/04/01 01:35:03;;;;;;;;;;;;;;;;;;5089068;28;20383;-69
2022/04/01 01:37:30;;;;;;;;;;;;;;;;;;5091121;28;19924;-70
2022/04/01 01:39:58;;;;;;;;;;;;;;;;;;5091270;28;19927;-70
2022/04/01 01:42:25;;;;;;;;;;;;;;;;;;5090862;28;19924;-69
2022/04/01 01:44:52;;;;;;;;;;;;;;;;;;5089462;28;19938;-69
2022/04/01 01:47:19;;;;;;;;;;;;;;;;;;5090905;28;19924;-70
2022/04/01 01:55:13;;;;;;;;;;;;;;;;;;5090022;28;19935;-70
2022/04/01 01:57:40;;;;;;;;;;;;;;;;;;5091519;28;19930;-70
2022/04/01 02:00:10;;;;;;;;;;;;;;;;;;5090182;28;19924;-70
2022/04/01 02:02:37;;;;;;;;;;;;;;;;;;5091442;28;19926;-70
2022/04/01 02:05:07;;;;;;;;;;;;;;;;;;5089541;28;20302;-70
2022/04/01 02:07:36;;;;;;;;;;;;;;;;;;5091638;28;19946;-70
2022/04/01 02:10:03;;;;;;;;;;;;;;;;;;5092028;28;19977;-70
2022/04/01 02:12:30;;;;;;;;;;;;;;;;;;5092052;28;19924;-70
2022/04/01 02:14:59;;;;;;;;;;;;;;;;;;5087275;28;19973;-69
2022/04/01 02:17:26;;;;;;;;;;;;;;;;;;5090691;28;19928;-70
2022/04/01 02:19:53;;;;;;;;;;;;;;;;;;5089653;28;19924;-70
2022/04/01 02:22:20;;;;;;;;;;;;;;;;;;5091275;28;19931;-70
2022/04/01 02:24:50;;;;;;;;;;;;;;;;;;5090323;28;19924;-70
2022/04/01 02:27:18;;;;;;;;;;;;;;;;;;5090394;28;20398;-70
2022/04/01 02:29:45;;;;;;;;;;;;;;;;;;5089106;28;20295;-70
2022/04/01 02:32:12;;;;;;;;;;;;;;;;;;5088247;28;19924;-70
2022/04/01 02:34:40;;;;;;;;;;;;;;;;;;5094832;28;19924;-70
2022/04/01 02:37:07;;;;;;;;;;;;;;;;;;5095259;28;19924;-70
2022/04/01 02:39:34;;;;;;;;;;;;;;;;;;5092164;28;19924;-70
2022/04/01 02:42:01;;;;;;;;;;;;;;;;;;5094379;28;20276;-70
2022/04/01 02:44:28;;;;;;;;;;;;;;;;;;5093301;28;20399;-70
2022/04/01 02:46:55;;;;;;;;;;;;;;;;;;5092647;28;19932;-70
2022/04/01 02:49:23;;;;;;;;;;;;;;;;;;5084030;28;19982;-70
2022/04/01 02:51:53;;;;;;;;;;;;;;;;;;5094884;28;20010;-69
2022/04/01 02:54:20;;;;;;;;;;;;;;;;;;5089588;28;19928;-69
2022/04/01 02:56:47;;;;;;;;;;;;;;;;;;5096857;28;19931;-70
2022/04/01 02:59:14;;;;;;;;;;;;;;;;;;5094744;28;20382;-71
2022/04/01 03:01:41;;;;;;;;;;;;;;;;;;5092627;28;19931;-69
2022/04/01 03:04:09;;;;;;;;;;;;;;;;;;5092283;28;19931;-69
2022/04/01 03:06:36;;;;;;;;;;;;;;;;;;5092827;28;20023;-70
2022/04/01 03:09:03;;;;;;;;;;;;;;;;;;5090447;28;20671;-70
2022/04/01 03:11:30;;;;;;;;;;;;;;;;;;5093122;28;20310;-70
2022/04/01 03:13:57;;;;;;;;;;;;;;;;;;5093052;28;19928;-70
2022/04/01 03:16:24;;;;;;;;;;;;;;;;;;5092448;28;20374;-70
2022/04/01 03:18:51;;;;;;;;;;;;;;;;;;5094018;28;19924;-69
2022/04/01 03:21:18;;;;;;;;;;;;;;;;;;5090486;28;19929;-70
2022/04/01 03:23:47;;;;;;;;;;;;;;;;;;5095562;28;20441;-70
2022/04/01 03:26:14;;;;;;;;;;;;;;;;;;5093518;28;19970;-70
2022/04/01 03:28:41;;;;;;;;;;;;;;;;;;5094364;28;19975;-70
2022/04/01 03:31:09;;;;;;;;;;;;;;;;;;5091286;28;20379;-70
2022/04/01 03:33:36;;;;;;;;;;;;;;;;;;5093855;28;19924;-70
2022/04/01 03:36:05;;;;;;;;;;;;;;;;;;5087178;28;19923;-69
2022/04/01 03:38:32;;;;;;;;;;;;;;;;;;5091133;28;19942;-69
2022/04/01 03:41:00;;;;;;;;;;;;;;;;;;5091458;28;20003;-69
2022/04/01 03:43:28;;;;;;;;;;;;;;;;;;5093486;28;19924;-69
2022/04/01 03:45:55;;;;;;;;;;;;;;;;;;5091376;28;20018;-69
2022/04/01 03:48:23;;;;;;;;;;;;;;;;;;5088707;28;19924;-69
2022/04/01 03:50:50;;;;;;;;;;;;;;;;;;5090397;28;19969;-69
2022/04/01 03:53:17;;;;;;;;;;;;;;;;;;5092393;28;19930;-70
2022/04/01 03:55:44;;;;;;;;;;;;;;;;;;5090591;28;20006;-71
2022/04/01 03:58:12;;;;;;;;;;;;;;;;;;5093390;28;19924;-70
2022/04/01 04:00:40;;;;;;;;;;;;;;;;;;5091035;28;19939;-69
2022/04/01 04:03:10;;;;;;;;;;;;;;;;;;5093709;28;19924;-68
2022/04/01 04:05:37;;;;;;;;;;;;;;;;;;5092060;28;19924;-69
2022/04/01 04:08:04;;;;;;;;;;;;;;;;;;5091559;28;19931;-69
2022/04/01 04:10:31;;;;;;;;;;;;;;;;;;5089793;28;19924;-68
2022/04/01 04:12:58;;;;;;;;;;;;;;;;;;5091836;28;19924;-70
2022/04/01 04:15:25;;;;;;;;;;;;;;;;;;5088569;28;19924;-68
2022/04/01 04:17:52;;;;;;;;;;;;;;;;;;5093221;28;20419;-68
2022/04/01 04:20:19;;;;;;;;;;;;;;;;;;5090024;28;19942;-68
2022/04/01 04:22:46;;;;;;;;;;;;;;;;;;5092216;28;20314;-68
2022/04/01 04:25:14;;;;;;;;;;;;;;;;;;5090461;28;19938;-68
2022/04/01 04:27:41;;;;;;;;;;;;;;;;;;5092755;28;19960;-68
2022/04/01 04:30:08;;;;;;;;;;;;;;;;;;5089341;28;19924;-68
2022/04/01 04:32:35;;;;;;;;;;;;;;;;;;5092012;28;19924;-69
2022/04/01 04:35:02;;;;;;;;;;;;;;;;;;5092083;28;20276;-69
2022/04/01 04:37:30;;;;;;;;;;;;;;;;;;5091643;28;19924;-69
2022/04/01 04:39:57;;;;;;;;;;;;;;;;;;5088872;28;20009;-69
2022/04/01 04:42:24;;;;;;;;;;;;;;;;;;5093121;28;19928;-69
2022/04/01 04:44:51;;;;;;;;;;;;;;;;;;5090678;28;20002;-70
2022/04/01 04:47:25;;;;;;;;;;;;;;;;;;5085739;28;19998;-71
2022/04/01 04:49:53;;;;;;;;;;;;;;;;;;5088688;28;19932;-72
2022/04/01 04:52:20;;;;;;;;;;;;;;;;;;5092260;28;20022;-72
2022/04/01 04:54:47;;;;;;;;;;;;;;;;;;5090456;28;19977;-72
2022/04/01 04:57:15;;;;;;;;;;;;;;;;;;5092533;28;20015;-71
2022/04/01 04:59:42;;;;;;;;;;;;;;;;;;5088103;28;20302;-71
2022/04/01 05:02:09;;;;;;;;;;;;;;;;;;5092560;28;20302;-72
2022/04/01 05:04:39;;;;;;;;;;;;;;;;;;5087284;28;20306;-75
2022/04/01 05:07:06;;;;;;;;;;;;;;;;;;5090614;28;19924;-72
2022/04/01 05:09:33;;;;;;;;;;;;;;;;;;5090503;28;19928;-72
2022/04/01 05:12:00;;;;;;;;;;;;;;;;;;5086353;28;19924;-73
2022/04/01 05:14:27;;;;;;;;;;;;;;;;;;5088465;28;19932;-74
2022/04/01 05:16:54;;;;;;;;;;;;;;;;;;5076214;28;19923;-74
2022/04/01 05:19:22;;;;;;;;;;;;;;;;;;5090113;28;20410;-74
2022/04/01 05:21:49;;;;;;;;;;;;;;;;;;5091996;28;19977;-74
2022/04/01 05:24:16;;;;;;;;;;;;;;;;;;5073654;28;19925;-74
2022/04/01 05:26:43;;;;;;;;;;;;;;;;;;5082868;28;19924;-74
2022/04/01 05:29:09;;;;;;;;;;;;;;;;;;5063007;28;20047;-74
2022/04/01 05:31:37;;;;;;;;;;;;;;;;;;5070847;28;19925;-75
2022/04/01 05:34:05;;;;;;;;;;;;;;;;;;5070404;28;19928;-74
2022/04/01 05:36:32;;;;;;;;;;;;;;;;;;5073079;28;19968;-74
2022/04/01 05:38:59;;;;;;;;;;;;;;;;;;5076328;28;19930;-74
2022/04/01 05:41:26;;;;;;;;;;;;;;;;;;5070222;28;19931;-74
2022/04/01 05:43:53;;;;;;;;;;;;;;;;;;5070599;28;20342;-74
2022/04/01 05:46:22;;;;;;;;;;;;;;;;;;5079942;28;20397;-73
2022/04/01 05:48:49;;;;;;;;;;;;;;;;;;5079851;28;19929;-73
2022/04/01 05:51:16;;;;;;;;;;;;;;;;;;5067928;28;20375;-73
2022/04/01 05:53:43;;;;;;;;;;;;;;;;;;5077193;28;19924;-73
2022/04/01 05:56:10;;;;;;;;;;;;;;;;;;5071583;28;19924;-73
2022/04/01 05:58:37;;;;;;;;;;;;;;;;;;5073810;28;19924;-73
2022/04/01 06:01:04;;;;;;;;;;;;;;;;;;5069643;28;19928;-73
2022/04/01 06:03:31;;;;;;;;;;;;;;;;;;5068936;28;19953;-73
2022/04/01 06:05:59;;;;;;;;;;;;;;;;;;5070466;28;20284;-74
2022/04/01 06:08:26;;;;;;;;;;;;;;;;;;5073556;28;19931;-74
2022/04/01 06:10:53;;;;;;;;;;;;;;;;;;5071187;28;19924;-74
2022/04/01 06:13:20;;;;;;;;;;;;;;;;;;5071335;28;19925;-73
2022/04/01 06:15:47;;;;;;;;;;;;;;;;;;5071678;28;20409;-73
2022/04/01 06:18:14;;;;;;;;;;;;;;;;;;5074090;28;19928;-71
2022/04/01 06:20:41;;;;;;;;;;;;;;;;;;5069949;28;19924;-73
2022/04/01 06:23:08;;;;;;;;;;;;;;;;;;5074297;28;19930;-73
2022/04/01 06:25:35;;;;;;;;;;;;;;;;;;5069320;28;19933;-73
2022/04/01 06:28:02;;;;;;;;;;;;;;;;;;5065701;28;21756;-74
2022/04/01 06:30:29;;;;;;;;;;;;;;;;;;5060446;28;19932;-75
2022/04/01 06:32:56;;;;;;;;;;;;;;;;;;5080661;28;19970;-74
2022/04/01 06:35:23;;;;;;;;;;;;;;;;;;5070044;28;19936;-74
2022/04/01 06:37:50;;;;;;;;;;;;;;;;;;5073031;28;19925;-74
2022/04/01 06:40:17;;;;;;;;;;;;;;;;;;5073932;28;20014;-73
2022/04/01 06:42:44;;;;;;;;;;;;;;;;;;5077158;28;20383;-74
2022/04/01 06:45:13;;;;;;;;;;;;;;;;;;5062320;28;19932;-74
2022/04/01 06:47:40;;;;;;;;;;;;;;;;;;5055995;28;19931;-74
2022/04/01 06:50:07;;;;;;;;;;;;;;;;;;5066915;28;20019;-73
2022/04/01 06:52:34;;;;;;;;;;;;;;;;;;5076078;28;19933;-73
2022/04/01 06:55:01;;;;;;;;;;;;;;;;;;5059041;28;19977;-73
2022/04/01 06:57:28;;;;;;;;;;;;;;;;;;5060270;28;20454;-72
2022/04/01 06:59:56;;;;;;;;;;;;;;;;;;5071733;28;19931;-73
2022/04/01 07:02:23;;;;;;;;;;;;;;;;;;5065866;28;19925;-72
2022/04/01 07:04:50;;;;;;;;;;;;;;;;;;5053779;28;20035;-74
2022/04/01 07:07:17;;;;;;;;;;;;;;;;;;5062450;28;19931;-73
2022/04/01 07:09:44;;;;;;;;;;;;;;;;;;5067556;28;20011;-72
2022/04/01 07:12:11;;;;;;;;;;;;;;;;;;5073500;28;19924;-72
2022/04/01 07:14:38;;;;;;;;;;;;;;;;;;5058497;28;19924;-72
2022/04/01 07:17:05;;;;;;;;;;;;;;;;;;5068088;28;20259;-71
2022/04/01 07:19:33;;;;;;;;;;;;;;;;;;5074778;28;20281;-71
2022/04/01 07:22:00;;;;;;;;;;;;;;;;;;5072269;28;19931;-71
2022/04/01 07:24:30;;;;;;;;;;;;;;;;;;5091956;28;19925;-72
2022/04/01 07:26:57;;;;;;;;;;;;;;;;;;5093269;28;20379;-72
2022/04/01 07:29:24;;;;;;;;;;;;;;;;;;5089215;28;20398;-71
2022/04/01 07:34:36;;;;;;;;;;;;;;;;;;5086729;28;20378;-72
2022/04/01 07:37:03;;;;;;;;;;;;;;;;;;5084296;28;21276;-72
2022/04/01 07:39:30;;;;;;;;;;;;;;;;;;5086902;28;19930;-74
2022/04/01 07:41:57;;;;;;;;;;;;;;;;;;5083490;28;19955;-72
2022/04/01 07:44:24;;;;;;;;;;;;;;;;;;5087268;28;20023;-75
2022/04/01 07:46:51;;;;;;;;;;;;;;;;;;5089500;28;20135;-74
2022/04/01 07:49:18;;;;;;;;;;;;;;;;;;5086624;28;19932;-74
2022/04/01 07:51:45;;;;;;;;;;;;;;;;;;5089288;28;20029;-73
2022/04/01 07:54:11;;;;;;;;;;;;;;;;;;5081224;28;20011;-73
2022/04/01 07:56:40;;;;;;;;;;;;;;;;;;5093804;28;20014;-72
2022/04/01 07:59:07;;;;;;;;;;;;;;;;;;5090815;28;19931;-72
2022/04/01 08:01:34;;;;;;;;;;;;;;;;;;5090729;28;19930;-72
2022/04/01 08:04:01;;;;;;;;;;;;;;;;;;5086973;28;20312;-70
2022/04/01 08:06:29;;;;;;;;;;;;;;;;;;5086100;28;19924;-72
2022/04/01 08:08:58;;;;;;;;;;;;;;;;;;5087667;28;20307;-72
2022/04/01 08:11:25;;;;;;;;;;;;;;;;;;5085894;28;19932;-73
2022/04/01 08:13:52;;;;;;;;;;;;;;;;;;5087057;28;19928;-71
2022/04/01 08:16:19;;;;;;;;;;;;;;;;;;5087886;28;20310;-72
2022/04/01 08:18:46;;;;;;;;;;;;;;;;;;5083617;28;19947;-72
2022/04/01 08:21:14;;;;;;;;;;;;;;;;;;5083682;28;20399;-72
2022/04/01 08:23:41;;;;;;;;;;;;;;;;;;5073818;28;19925;-71
2022/04/01 08:26:08;;;;;;;;;;;;;;;;;;5075418;28;19929;-70
2022/04/01 08:28:36;;;;;;;;;;;;;;;;;;5065164;28;19940;-70
2022/04/01 08:31:03;;;;;;;;;;;;;;;;;;5065316;28;20287;-75
2022/04/01 08:33:30;;;;;;;;;;;;;;;;;;5067831;28;19924;-70
2022/04/01 08:35:57;;;;;;;;;;;;;;;;;;5056394;28;19971;-71
2022/04/01 08:38:24;;;;;;;;;;;;;;;;;;5081260;28;19940;-73
2022/04/01 08:40:51;;;;;;;;;;;;;;;;;;5065192;28;19974;-70
2022/04/01 08:43:17;;;;;;;;;;;;;;;;;;5070148;28;20013;-73
2022/04/01 08:45:44;;;;;;;;;;;;;;;;;;5069086;28;19924;-70
2022/04/01 08:48:11;;;;;;;;;;;;;;;;;;5068659;28;19932;-69
2022/04/01 08:50:38;;;;;;;;;;;;;;;;;;5075670;28;19931;-70
2022/04/01 08:53:05;;;;;;;;;;;;;;;;;;5072746;28;19929;-70
2022/04/01 08:55:32;;;;;;;;;;;;;;;;;;5069631;28;19924;-69
2022/04/01 08:57:59;;;;;;;;;;;;;;;;;;5067323;28;20390;-68
2022/04/01 09:00:26;;;;;;;;;;;;;;;;;;5069875;28;20369;-67
2022/04/01 09:02:53;;;;;;;;;;;;;;;;;;5070916;28;19924;-68
2022/04/01 09:05:20;;;;;;;;;;;;;;;;;;5065805;28;19924;-68
2022/04/01 09:07:47;;;;;;;;;;;;;;;;;;5068959;28;20003;-68
2022/04/01 09:10:14;;;;;;;;;;;;;;;;;;5068447;28;19925;-68
2022/04/01 09:12:41;;;;;;;;;;;;;;;;;;5073487;28;19924;-67
2022/04/01 09:15:08;;;;;;;;;;;;;;;;;;5070584;28;19924;-70
2022/04/01 09:17:35;;;;;;;;;;;;;;;;;;5071295;28;19972;-70
2022/04/01 09:20:02;;;;;;;;;;;;;;;;;;5068773;28;19924;-70
2022/04/01 09:22:29;;;;;;;;;;;;;;;;;;5074626;28;19924;-70
2022/04/01 09:24:56;;;;;;;;;;;;;;;;;;5070055;28;19929;-71
2022/04/01 09:27:23;;;;;;;;;;;;;;;;;;5078757;28;19930;-71
2022/04/01 09:29:50;;;;;;;;;;;;;;;;;;5076211;28;20290;-70
2022/04/01 09:32:17;;;;;;;;;;;;;;;;;;5075658;28;20298;-71
2022/04/01 09:34:44;;;;;;;;;;;;;;;;;;5068219;28;20401;-72
2022/04/01 09:37:11;;;;;;;;;;;;;;;;;;5064981;28;19980;-72
2022/04/01 09:39:38;;;;;;;;;;;;;;;;;;5066814;28;19931;-71
2022/04/01 09:42:06;;;;;;;;;;;;;;;;;;5070280;28;19928;-71
2022/04/01 09:44:33;;;;;;;;;;;;;;;;;;5077199;28;19924;-71
2022/04/01 09:47:00;;;;;;;;;;;;;;;;;;5070746;28;20360;-72
2022/04/01 09:49:27;;;;;;;;;;;;;;;;;;5066565;28;20026;-71
2022/04/01 09:51:54;;;;;;;;;;;;;;;;;;5063231;28;19932;-70
2022/04/01 09:54:21;;;;;;;;;;;;;;;;;;5065035;28;19931;-69
2022/04/01 09:56:49;;;;;;;;;;;;;;;;;;5076375;28;19931;-71
2022/04/01 09:59:16;;;;;;;;;;;;;;;;;;5085683;28;19932;-71
2022/04/01 10:01:43;;;;;;;;;;;;;;;;;;5081902;28;19932;-71
2022/04/01 10:04:10;;;;;;;;;;;;;;;;;;5071106;28;20276;-71
2022/04/01 10:06:39;;;;;;;;;;;;;;;;;;5071488;28;19974;-72
2022/04/01 10:09:07;;;;;;;;;;;;;;;;;;5068035;28;20298;-69
2022/04/01 10:11:35;;;;;;;;;;;;;;;;;;5072467;28;19974;-71
2022/04/01 10:14:03;;;;;;;;;;;;;;;;;;5074806;28;19925;-72
2022/04/01 10:16:30;;;;;;;;;;;;;;;;;;5080401;28;19970;-71
2022/04/01 10:18:57;;;;;;;;;;;;;;;;;;5068291;28;19942;-70
2022/04/01 10:21:24;;;;;;;;;;;;;;;;;;5079368;28;19951;-71
2022/04/01 10:23:52;;;;;;;;;;;;;;;;;;5075755;28;19939;-71
2022/04/01 10:26:19;;;;;;;;;;;;;;;;;;5083348;28;19933;-71
2022/04/01 10:28:47;;;;;;;;;;;;;;;;;;5065853;28;19959;-71
2022/04/01 10:31:14;;;;;;;;;;;;;;;;;;5074834;28;20395;-71
2022/04/01 10:33:41;;;;;;;;;;;;;;;;;;5069636;28;20290;-71
2022/04/01 10:36:08;;;;;;;;;;;;;;;;;;5082629;28;20397;-71
2022/04/01 10:38:35;;;;;;;;;;;;;;;;;;5071986;28;19931;-71
2022/04/01 10:41:02;;;;;;;;;;;;;;;;;;5066752;28;20427;-71
2022/04/01 10:43:29;;;;;;;;;;;;;;;;;;5075889;28;19993;-74
2022/04/01 10:45:56;;;;;;;;;;;;;;;;;;5082422;28;19932;-73
2022/04/01 10:53:52;;;;;;;;;;;;;;;;;;5076485;28;19973;-72
2022/04/01 10:56:19;;;;;;;;;;;;;;;;;;5075238;28;19931;-72
2022/04/01 10:58:46;;;;;;;;;;;;;;;;;;5070909;28;19934;-72
2022/04/01 11:01:13;;;;;;;;;;;;;;;;;;5080375;28;19924;-72
2022/04/01 11:03:42;;;;;;;;;;;;;;;;;;5081288;28;19931;-72
2022/04/01 11:06:09;;;;;;;;;;;;;;;;;;5075598;28;19967;-72
2022/04/01 11:08:38;;;;;;;;;;;;;;;;;;5071421;28;20008;-73
2022/04/01 11:11:05;;;;;;;;;;;;;;;;;;5069647;28;20353;-72
2022/04/01 11:13:32;;;;;;;;;;;;;;;;;;5084046;28;19940;-72
2022/04/01 11:15:59;;;;;;;;;;;;;;;;;;5072680;28;20015;-72
2022/04/01 11:18:26;;;;;;;;;;;;;;;;;;5071200;28;20558;-73
2022/04/01 11:20:53;;;;;;;;;;;;;;;;;;5077935;28;20014;-72
2022/04/01 11:23:20;;;;;;;;;;;;;;;;;;5087088;28;20421;-73
2022/04/01 11:25:50;;;;;;;;;;;;;;;;;;5088352;28;19931;-73
2022/04/01 11:28:17;;;;;;;;;;;;;;;;;;5089531;28;19924;-71
2022/04/01 11:30:44;;;;;;;;;;;;;;;;;;5087906;28;19932;-72
2022/04/01 11:33:11;;;;;;;;;;;;;;;;;;5091543;28;20023;-70
2022/04/01 11:35:39;;;;;;;;;;;;;;;;;;5087249;28;19931;-70
2022/04/01 11:38:06;;;;;;;;;;;;;;;;;;5086573;28;19924;-71
2022/04/01 11:40:33;;;;;;;;;;;;;;;;;;5089350;28;20308;-70
2022/04/01 11:43:02;;;;;;;;;;;;;;;;;;5082202;28;19924;-70
2022/04/01 11:45:29;;;;;;;;;;;;;;;;;;5082894;28;20382;-69
2022/04/01 11:47:56;;;;;;;;;;;;;;;;;;5087716;28;19942;-69
2022/04/01 11:50:23;;;;;;;;;;;;;;;;;;5085338;28;20472;-70
2022/04/01 11:52:50;;;;;;;;;;;;;;;;;;5089012;28;19924;-69
2022/04/01 11:55:17;;;;;;;;;;;;;;;;;;5086290;28;20060;-70
2022/04/01 11:57:44;;;;;;;;;;;;;;;;;;5086457;28;19962;-71
2022/04/01 12:00:11;;;;;;;;;;;;;;;;;;5087342;28;19924;-70
2022/04/01 12:02:38;;;;;;;;;;;;;;;;;;5087945;28;19924;-70
2022/04/01 12:05:05;;;;;;;;;;;;;;;;;;5086830;28;20015;-70
2022/04/01 12:10:17;;;;;;;;;;;;;;;;;;5085094;28;19943;-71
2022/04/01 12:12:44;;;;;;;;;;;;;;;;;;5090481;28;19924;-70
2022/04/01 12:15:11;;;;;;;;;;;;;;;;;;5089241;28;19939;-72
2022/04/01 12:17:38;;;;;;;;;;;;;;;;;;5092922;28;19928;-71
2022/04/01 12:20:06;;;;;;;;;;;;;;;;;;5086806;28;19931;-72
2022/04/01 12:22:35;;;;;;;;;;;;;;;;;;5090543;28;19928;-71
2022/04/01 12:25:02;;;;;;;;;;;;;;;;;;5087966;28;19924;-71
2022/04/01 12:27:29;;;;;;;;;;;;;;;;;;5089106;28;19932;-70
2022/04/01 12:29:56;;;;;;;;;;;;;;;;;;5087432;28;20015;-70
2022/04/01 12:32:24;;;;;;;;;;;;;;;;;;5087661;28;19924;-70
2022/04/01 12:34:51;;;;;;;;;;;;;;;;;;5085914;28;19967;-71
2022/04/01 12:37:18;;;;;;;;;;;;;;;;;;5088015;28;20406;-71
2022/04/01 12:39:46;;;;;;;;;;;;;;;;;;5086683;28;19924;-72
2022/04/01 12:42:14;;;;;;;;;;;;;;;;;;5089911;28;19924;-71
2022/04/01 12:44:41;;;;;;;;;;;;;;;;;;5087855;28;19993;-71
2022/04/01 12:47:08;;;;;;;;;;;;;;;;;;5088010;28;20028;-72
2022/04/01 12:49:35;;;;;;;;;;;;;;;;;;5086603;28;19967;-71
2022/04/01 12:52:02;;;;;;;;;;;;;;;;;;5083529;28;20367;-70
2022/04/01 12:54:31;;;;;;;;;;;;;;;;;;5088405;28;19932;-71
2022/04/01 12:56:58;;;;;;;;;;;;;;;;;;5088376;28;20412;-71
2022/04/01 12:59:25;;;;;;;;;;;;;;;;;;5082642;28;20359;-72
2022/04/01 13:01:52;;;;;;;;;;;;;;;;;;5091095;28;20471;-72
2022/04/01 13:04:19;;;;;;;;;;;;;;;;;;5088011;28;20374;-71
2022/04/01 13:06:46;;;;;;;;;;;;;;;;;;5089850;28;20349;-70
2022/04/01 13:09:14;;;;;;;;;;;;;;;;;;5086857;28;20011;-71
2022/04/01 13:11:41;;;;;;;;;;;;;;;;;;5089520;28;19932;-72
2022/04/01 13:14:08;;;;;;;;;;;;;;;;;;5087106;28;19966;-69
2022/04/01 13:16:35;;;;;;;;;;;;;;;;;;5090784;28;20384;-65
2022/04/01 13:19:02;;;;;;;;;;;;;;;;;;5086206;28;19964;-70
2022/04/01 13:21:29;;;;;;;;;;;;;;;;;;5088821;28;19931;-72
2022/04/01 13:23:56;;;;;;;;;;;;;;;;;;5091731;28;19931;-72
2022/04/01 13:26:24;;;;;;;;;;;;;;;;;;5085460;28;19924;-72
2022/04/01 13:28:51;;;;;;;;;;;;;;;;;;5086998;28;19931;-70
2022/04/01 13:31:18;;;;;;;;;;;;;;;;;;5090753;28;20305;-69
2022/04/01 13:33:45;;;;;;;;;;;;;;;;;;5086981;28;20310;-70
2022/04/01 13:36:12;;;;;;;;;;;;;;;;;;5087776;28;19931;-71
2022/04/01 13:38:40;;;;;;;;;;;;;;;;;;5091238;28;19924;-70
2022/04/01 13:41:08;;;;;;;;;;;;;;;;;;5087233;28;19932;-71
2022/04/01 13:43:35;;;;;;;;;;;;;;;;;;5088803;28;19924;-69
2022/04/01 13:46:02;;;;;;;;;;;;;;;;;;5087896;28;20398;-70
2022/04/01 13:48:28;;;;;;;;;;;;;;;;;;5084929;28;19924;-69
2022/04/01 13:50:56;;;;;;;;;;;;;;;;;;5083639;28;19934;-70
2022/04/01 13:53:23;;;;;;;;;;;;;;;;;;5090025;28;19930;-70
2022/04/01 13:55:50;;;;;;;;;;;;;;;;;;5086034;28;19924;-69
2022/04/01 13:58:17;;;;;;;;;;;;;;;;;;5088221;28;19924;-69
2022/04/01 14:00:45;;;;;;;;;;;;;;;;;;5082878;28;20439;-70
2022/04/01 14:03:12;;;;;;;;;;;;;;;;;;5087862;28;19931;-70
2022/04/01 14:05:39;;;;;;;;;;;;;;;;;;5087059;28;19934;-70
2022/04/01 14:08:06;;;;;;;;;;;;;;;;;;5088869;28;19931;-70
2022/04/01 14:10:32;;;;;;;;;;;;;;;;;;5083539;28;19932;-70
2022/04/01 14:12:59;;;;;;;;;;;;;;;;;;5086856;28;19924;-70
2022/04/01 14:15:26;;;;;;;;;;;;;;;;;;5084947;28;20011;-70
2022/04/01 14:17:53;;;;;;;;;;;;;;;;;;5082199;28;19924;-70
2022/04/01 14:20:20;;;;;;;;;;;;;;;;;;5087637;28;19924;-69
2022/04/01 14:22:47;;;;;;;;;;;;;;;;;;5084549;28;19966;-69
2022/04/01 14:25:14;;;;;;;;;;;;;;;;;;5085094;28;20023;-70
2022/04/01 14:27:41;;;;;;;;;;;;;;;;;;5089148;28;19932;-70
2022/04/01 14:30:21;;;;;;;;;;;;;;;;;;5085238;28;20058;-69
2022/04/01 14:32:48;;;;;;;;;;;;;;;;;;5085394;28;19924;-70
2022/04/01 14:35:15;;;;;;;;;;;;;;;;;;5088855;28;19928;-72
2022/04/01 14:37:42;;;;;;;;;;;;;;;;;;5091259;28;20405;-72
2022/04/01 14:40:09;;;;;;;;;;;;;;;;;;5089092;28;20349;-71
2022/04/01 14:42:36;;;;;;;;;;;;;;;;;;5091339;28;20807;-72
2022/04/01 14:45:03;;;;;;;;;;;;;;;;;;5087054;28;20446;-69
2022/04/01 14:47:30;;;;;;;;;;;;;;;;;;5092458;28;20369;-69
2022/04/01 14:49:57;;;;;;;;;;;;;;;;;;5090336;28;19928;-69
2022/04/01 14:52:24;;;;;;;;;;;;;;;;;;5089722;28;20417;-71
2022/04/01 14:54:51;;;;;;;;;;;;;;;;;;5090120;28;20977;-71
2022/04/01 14:57:18;;;;;;;;;;;;;;;;;;5089961;28;19939;-72
2022/04/01 14:59:46;;;;;;;;;;;;;;;;;;5086085;28;20367;-70
2022/04/01 15:02:13;;;;;;;;;;;;;;;;;;5091100;28;19989;-68
2022/04/01 15:04:40;;;;;;;;;;;;;;;;;;5087822;28;20492;-70
2022/04/01 15:07:07;;;;;;;;;;;;;;;;;;5091877;28;19963;-69
2022/04/01 15:09:37;;;;;;;;;;;;;;;;;;5089986;28;19928;-71
2022/04/01 15:12:04;;;;;;;;;;;;;;;;;;5095340;28;19924;-70
2022/04/01 15:14:31;;;;;;;;;;;;;;;;;;5089209;28;19924;-70
2022/04/01 15:16:58;;;;;;;;;;;;;;;;;;5089310;28;19986;-71
2022/04/01 15:19:25;;;;;;;;;;;;;;;;;;5089631;28;19928;-70
2022/04/01 15:21:52;;;;;;;;;;;;;;;;;;5094925;28;19928;-70
2022/04/01 15:24:20;;;;;;;;;;;;;;;;;;5089082;28;19939;-72
2022/04/01 15:26:47;;;;;;;;;;;;;;;;;;5087804;28;19928;-68
2022/04/01 15:29:14;;;;;;;;;;;;;;;;;;5084791;28;20018;-70
2022/04/01 15:31:41;;;;;;;;;;;;;;;;;;5077652;28;19928;-71
2022/04/01 15:34:08;;;;;;;;;;;;;;;;;;5079406;28;19932;-70
2022/04/01 15:36:35;;;;;;;;;;;;;;;;;;5080601;28;20270;-71
2022/04/01 15:39:03;;;;;;;;;;;;;;;;;;5084447;28;19965;-69
2022/04/01 15:41:32;;;;;;;;;;;;;;;;;;5079883;28;19932;-72
2022/04/01 15:43:59;;;;;;;;;;;;;;;;;;5086777;28;19928;-70
2022/04/01 15:46:26;;;;;;;;;;;;;;;;;;5086330;28;19951;-73
2022/04/01 15:48:53;;;;;;;;;;;;;;;;;;5084606;28;20011;-70
2022/04/01 15:51:20;;;;;;;;;;;;;;;;;;5088079;28;20398;-71
2022/04/01 15:53:47;;;;;;;;;;;;;;;;;;5089812;28;19964;-69
2022/04/01 15:56:14;;;;;;;;;;;;;;;;;;5089039;28;20027;-70
2022/04/01 15:58:41;;;;;;;;;;;;;;;;;;5086398;28;19924;-70
2022/04/01 16:01:08;;;;;;;;;;;;;;;;;;5085497;28;20019;-70
2022/04/01 16:03:37;;;;;;;;;;;;;;;;;;5089858;28;20088;-70
2022/04/01 16:06:04;;;;;;;;;;;;;;;;;;5085155;28;20437;-69
2022/04/01 16:08:31;;;;;;;;;;;;;;;;;;5088207;28;20478;-70
2022/04/01 16:10:58;;;;;;;;;;;;;;;;;;5088506;28;20417;-70
2022/04/01 16:13:25;;;;;;;;;;;;;;;;;;5090097;28;20014;-69
2022/04/01 16:15:52;;;;;;;;;;;;;;;;;;5085649;28;20014;-72
2022/04/01 16:18:19;;;;;;;;;;;;;;;;;;5083683;28;19970;-72
2022/04/01 16:20:46;;;;;;;;;;;;;;;;;;5088116;28;20365;-70
2022/04/01 16:23:15;;;;;;;;;;;;;;;;;;5077567;28;19924;-70
2022/04/01 16:25:42;;;;;;;;;;;;;;;;;;5077919;28;20014;-70
2022/04/01 16:28:09;;;;;;;;;;;;;;;;;;5065214;28;19925;-70
2022/04/01 16:30:36;;;;;;;;;;;;;;;;;;5072861;28;19932;-71
2022/04/01 16:33:03;;;;;;;;;;;;;;;;;;5073267;28;20615;-71
2022/04/01 16:35:30;;;;;;;;;;;;;;;;;;5070552;28;19928;-70
2022/04/01 16:37:57;;;;;;;;;;;;;;;;;;5070906;28;19929;-71
2022/04/01 16:40:24;;;;;;;;;;;;;;;;;;5080144;28;19928;-70
2022/04/01 16:42:51;;;;;;;;;;;;;;;;;;5087618;28;20026;-70
2022/04/01 16:45:18;;;;;;;;;;;;;;;;;;5070870;28;19925;-70
2022/04/01 16:47:46;;;;;;;;;;;;;;;;;;5076333;28;20350;-71
2022/04/01 16:50:13;;;;;;;;;;;;;;;;;;5077274;28;20429;-70
2022/04/01 16:52:40;;;;;;;;;;;;;;;;;;5073801;28;20263;-71
2022/04/01 16:55:07;;;;;;;;;;;;;;;;;;5067578;28;20302;-71
2022/04/01 16:57:34;;;;;;;;;;;;;;;;;;5076604;28;19924;-69
2022/04/01 17:00:01;;;;;;;;;;;;;;;;;;5068196;28;20380;-72
2022/04/01 17:02:28;;;;;;;;;;;;;;;;;;5067591;28;19924;-73